createdAt,value
2022-11-19T00:02:13.544Z,99.90
2022-11-19T00:04:43.336Z,99.90
2022-11-19T00:32:22.042Z,99.90
2022-11-19T00:34:49.773Z,99.90
2022-11-19T00:37:17.127Z,99.90
2022-11-19T00:39:44.994Z,99.90
2022-11-19T00:42:15.494Z,99.90
2022-11-19T00:47:10.654Z,99.90
2022-11-19T00:49:37.879Z,99.90
2022-11-19T01:04:23.224Z,99.90
2022-11-19T01:06:50.209Z,99.90
2022-11-19T01:11:45.645Z,99.90
2022-11-19T01:16:41.877Z,99.90
2022-11-19T01:19:10.777Z,99.90
2022-11-19T01:21:38.211Z,99.90
2022-11-19T01:24:06.307Z,99.90
2022-11-19T01:26:33.801Z,99.90
2022-11-19T01:31:29.696Z,99.90
2022-11-19T01:33:57.215Z,99.90
2022-11-19T01:36:27.460Z,99.90
2022-11-19T01:38:54.867Z,99.90
2022-11-19T01:41:24.568Z,99.90
2022-11-19T01:43:59.176Z,99.90
2022-11-19T01:46:36.155Z,99.90
2022-11-19T01:49:16.883Z,99.90
2022-11-19T01:51:47.674Z,99.90
2022-11-19T01:54:20.802Z,99.90
2022-11-19T01:59:18.217Z,99.90
2022-11-19T02:04:16.496Z,99.90
2022-11-19T02:06:45.388Z,99.90
2022-11-19T02:12:02.379Z,99.90
2022-11-19T02:15:01.864Z,99.90
2022-11-19T02:17:45.925Z,99.90
2022-11-19T02:20:28.458Z,99.90
2022-11-19T02:23:29.890Z,99.90
2022-11-19T02:26:10.625Z,99.90
2022-11-19T02:28:46.647Z,99.90
2022-11-19T02:31:52.468Z,99.90
2022-11-19T02:34:30.423Z,99.90
2022-11-19T02:37:26.471Z,99.90
2022-11-19T02:40:01.527Z,99.90
2022-11-19T02:42:35.077Z,99.90
2022-11-19T02:45:23.947Z,99.90
2022-11-19T02:47:55.238Z,99.90
2022-11-19T02:50:34.540Z,99.90
2022-11-19T02:53:04.433Z,99.90
2022-11-19T02:58:06.276Z,99.90
2022-11-19T03:01:02.428Z,99.90
2022-11-19T03:03:56.440Z,99.90
2022-11-19T03:06:28.851Z,99.90
2022-11-19T03:08:55.993Z,99.90
2022-11-19T03:11:28.520Z,99.90
2022-11-19T03:14:29.471Z,99.90
2022-11-19T03:17:12.698Z,99.90
2022-11-19T03:19:51.503Z,99.90
2022-11-19T03:22:26.896Z,99.90
2022-11-19T03:24:59.702Z,99.90
2022-11-19T03:27:35.565Z,99.90
2022-11-19T03:30:04.255Z,99.90
2022-11-19T03:32:40.622Z,99.90
2022-11-19T03:35:22.746Z,99.90
2022-11-19T03:37:53.155Z,99.90
2022-11-19T03:40:22.370Z,99.90
2022-11-19T03:42:53.115Z,99.90
2022-11-19T03:45:28.347Z,99.90
2022-11-19T03:47:57.020Z,99.90
2022-11-19T03:50:35.250Z,99.90
2022-11-19T03:53:04.577Z,99.90
2022-11-19T03:55:38.046Z,99.90
2022-11-19T03:58:07.310Z,99.90
2022-11-19T04:03:01.977Z,99.90
2022-11-19T04:08:22.355Z,99.90
2022-11-19T04:20:43.648Z,99.90
2022-11-19T04:23:10.689Z,99.90
2022-11-19T04:30:33.404Z,99.90
2022-11-19T04:35:27.815Z,99.90
2022-11-19T04:47:44.536Z,99.90
2022-11-19T04:50:11.954Z,99.90
2022-11-19T04:55:10.765Z,99.90
2022-11-19T05:00:06.496Z,99.90
2022-11-19T05:02:33.425Z,99.90
2022-11-19T05:09:55.627Z,99.90
2022-11-19T05:14:50.409Z,99.90
2022-11-19T05:22:12.634Z,99.90
2022-11-19T05:32:02.654Z,88.00
2022-11-19T05:44:20.905Z,75.50
2022-11-19T05:49:15.322Z,78.90
2022-11-19T05:54:11.104Z,76.90
2022-11-19T05:56:38.407Z,82.10
2022-11-19T06:04:00.956Z,91.60
2022-11-19T06:23:59.560Z,99.90
2022-11-19T06:26:28.705Z,99.90
2022-11-19T06:28:56.651Z,99.90
2022-11-19T06:31:24.396Z,99.90
2022-11-19T06:36:21.605Z,99.90
2022-11-19T06:38:48.997Z,99.90
2022-11-19T06:46:13.194Z,99.90
2022-11-19T06:48:40.501Z,99.90
2022-11-19T06:51:07.725Z,99.90
2022-11-19T06:53:35.094Z,99.90
2022-11-19T06:56:05.117Z,99.90
2022-11-19T06:58:34.599Z,99.90
2022-11-19T07:03:30.320Z,99.90
2022-11-19T07:06:03.678Z,99.90
2022-11-19T07:08:34.852Z,99.90
2022-11-19T07:11:22.796Z,99.90
2022-11-19T07:14:00.088Z,99.90
2022-11-19T07:16:30.326Z,99.90
2022-11-19T07:18:59.019Z,99.90
2022-11-19T07:21:25.984Z,99.90
2022-11-19T07:23:53.625Z,99.90
2022-11-19T07:28:48.053Z,99.90
2022-11-19T07:31:14.984Z,99.90
2022-11-19T07:33:42.121Z,99.90
2022-11-19T07:36:15.336Z,99.90
2022-11-19T07:38:45.236Z,99.90
2022-11-19T07:43:57.946Z,99.90
2022-11-19T07:46:24.857Z,99.90
2022-11-19T07:48:56.620Z,99.90
2022-11-19T07:51:24.404Z,99.90
2022-11-19T07:53:51.506Z,99.90
2022-11-19T07:56:19.795Z,99.90
2022-11-19T08:01:20.015Z,99.90
2022-11-19T08:03:53.232Z,99.90
2022-11-19T08:06:22.974Z,99.90
2022-11-19T08:11:19.915Z,99.90
2022-11-19T08:16:34.972Z,90.10
2022-11-19T08:19:03.638Z,87.90
2022-11-19T08:23:57.854Z,91.00
2022-11-19T08:31:19.691Z,87.20
2022-11-19T08:33:46.567Z,87.40
2022-11-19T08:36:13.471Z,81.00
2022-11-19T08:38:40.374Z,78.60
2022-11-19T08:41:25.818Z,79.00
2022-11-19T08:46:20.354Z,79.00
2022-11-19T08:48:47.246Z,78.60
2022-11-19T08:53:44.488Z,77.60
2022-11-19T08:56:15.359Z,74.00
2022-11-19T08:58:45.086Z,74.40
2022-11-19T09:01:14.536Z,76.90
2022-11-19T09:03:41.862Z,79.40
2022-11-19T09:06:09.656Z,89.30
2022-11-19T09:08:40.050Z,92.70
2022-11-19T09:11:07.922Z,91.70
2022-11-19T09:18:31.286Z,82.10
2022-11-19T09:23:27.338Z,87.10
2022-11-19T09:25:56.542Z,87.70
2022-11-19T09:28:23.759Z,86.30
2022-11-19T09:31:13.050Z,82.90
2022-11-19T09:33:42.919Z,86.00
2022-11-19T09:36:11.674Z,83.00
2022-11-19T09:38:41.401Z,80.70
2022-11-19T09:41:14.305Z,81.30
2022-11-19T09:44:20.044Z,83.90
2022-11-19T09:47:04.304Z,80.80
2022-11-19T09:49:37.533Z,80.00
2022-11-19T09:52:11.745Z,82.30
2022-11-19T09:54:49.917Z,79.90
2022-11-19T09:57:27.467Z,76.30
2022-11-19T09:59:59.037Z,75.30
2022-11-19T10:07:28.137Z,74.40
2022-11-19T10:10:12.672Z,71.30
2022-11-19T10:13:13.967Z,68.20
2022-11-19T10:16:06.270Z,67.30
2022-11-19T10:18:36.338Z,66.00
2022-11-19T10:21:41.744Z,65.10
2022-11-19T10:24:18.259Z,66.50
2022-11-19T10:26:50.042Z,66.90
2022-11-19T10:29:21.971Z,66.50
2022-11-19T10:31:51.427Z,67.00
2022-11-19T10:34:18.493Z,68.00
2022-11-19T10:36:55.907Z,68.30
2022-11-19T10:39:25.288Z,70.90
2022-11-19T10:42:32.936Z,72.40
2022-11-19T10:45:03.607Z,71.40
2022-11-19T10:47:37.171Z,69.20
2022-11-19T10:52:42.511Z,72.10
2022-11-19T10:55:29.853Z,71.30
2022-11-19T10:58:22.658Z,73.70
2022-11-19T11:03:28.051Z,74.10
2022-11-19T11:06:04.474Z,79.90
2022-11-19T11:08:46.670Z,84.30
2022-11-19T11:16:44.311Z,89.60
2022-11-19T11:19:13.122Z,87.30
2022-11-19T11:21:43.578Z,92.50
2022-11-19T11:24:12.457Z,92.00
2022-11-19T11:26:40.456Z,89.10
2022-11-19T11:29:13.627Z,91.20
2022-11-19T11:31:47.664Z,90.90
2022-11-19T11:36:44.206Z,95.50
2022-11-19T11:39:30.495Z,95.10
2022-11-19T11:42:07.385Z,94.90
2022-11-19T11:44:37.230Z,95.10
2022-11-19T11:47:12.597Z,96.40
2022-11-19T11:49:43.636Z,96.20
2022-11-19T11:52:17.206Z,98.70
2022-11-19T11:54:54.891Z,99.70
2022-11-19T11:57:24.881Z,99.50
2022-11-19T12:02:32.504Z,94.20
2022-11-19T12:05:06.207Z,92.30
2022-11-19T12:10:26.706Z,89.70
2022-11-19T12:13:15.448Z,92.00
2022-11-19T12:23:23.031Z,86.20
2022-11-19T12:25:57.510Z,87.00
2022-11-19T12:31:30.414Z,89.00
2022-11-19T12:34:04.470Z,88.10
2022-11-19T12:36:58.897Z,88.80
2022-11-19T12:39:37.823Z,89.80
2022-11-19T12:42:31.352Z,88.40
2022-11-19T12:45:20.629Z,89.60
2022-11-19T12:48:04.974Z,89.90
2022-11-19T12:51:18.368Z,92.10
2022-11-19T12:54:16.930Z,92.40
2022-11-19T12:57:21.041Z,90.70
2022-11-19T13:00:05.644Z,92.40
2022-11-19T13:02:52.219Z,87.90
2022-11-19T13:05:27.437Z,90.00
2022-11-19T13:08:01.864Z,85.40
2022-11-19T13:11:17.917Z,87.90
2022-11-19T13:17:37.927Z,82.70
2022-11-19T13:20:18.169Z,75.70
2022-11-19T13:22:47.606Z,79.10
2022-11-19T13:25:39.955Z,78.20
2022-11-19T13:28:18.726Z,75.90
2022-11-19T13:30:50.090Z,76.30
2022-11-19T13:33:33.992Z,75.70
2022-11-19T13:36:29.722Z,74.70
2022-11-19T13:39:12.093Z,77.50
2022-11-19T13:42:09.324Z,74.40
2022-11-19T13:44:41.521Z,72.40
2022-11-19T13:47:26.587Z,71.80
2022-11-19T13:50:17.059Z,71.60
2022-11-19T13:52:56.193Z,72.80
2022-11-19T13:55:37.855Z,74.70
2022-11-19T13:58:18.394Z,74.50
2022-11-19T14:01:06.794Z,77.20
2022-11-19T14:03:47.700Z,77.10
2022-11-19T14:06:33.705Z,84.70
2022-11-19T14:09:25.467Z,88.90
2022-11-19T14:12:08.400Z,91.20
2022-11-19T14:14:54.214Z,92.70
2022-11-19T14:18:07.803Z,92.00
2022-11-19T14:20:59.786Z,94.60
2022-11-19T14:24:05.182Z,92.60
2022-11-19T14:26:41.249Z,92.90
2022-11-19T14:29:20.170Z,91.80
2022-11-19T14:32:08.292Z,91.00
2022-11-19T14:34:41.986Z,90.20
2022-11-19T14:37:32.418Z,91.40
2022-11-19T14:40:07.291Z,90.30
2022-11-19T14:42:54.317Z,88.00
2022-11-19T14:45:21.680Z,88.70
2022-11-19T14:47:48.549Z,84.80
2022-11-19T14:50:28.915Z,84.70
2022-11-19T14:52:59.039Z,86.00
2022-11-19T14:55:30.441Z,88.40
2022-11-19T14:58:04.831Z,87.10
2022-11-19T15:00:31.710Z,87.70
2022-11-19T15:02:59.901Z,86.60
2022-11-19T15:05:29.737Z,88.30
2022-11-19T15:08:18.605Z,86.40
2022-11-19T15:10:47.945Z,86.20
2022-11-19T15:13:21.613Z,85.20
2022-11-19T15:15:51.487Z,78.70
2022-11-19T15:18:40.191Z,81.30
2022-11-19T15:21:36.071Z,83.60
2022-11-19T15:24:15.685Z,84.90
2022-11-19T15:27:03.167Z,86.70
2022-11-19T15:29:41.904Z,88.40
2022-11-19T15:32:39.390Z,88.70
2022-11-19T15:35:12.491Z,91.30
2022-11-19T15:37:54.306Z,91.40
2022-11-19T15:40:30.671Z,93.30
2022-11-19T15:43:36.324Z,92.10
2022-11-19T15:46:10.291Z,94.00
2022-11-19T15:49:05.123Z,93.70
2022-11-19T15:51:41.641Z,97.70
2022-11-19T15:54:11.796Z,96.40
2022-11-19T15:56:43.782Z,93.90
2022-11-19T15:59:13.163Z,99.90
2022-11-19T16:01:41.631Z,97.90
2022-11-19T16:04:16.057Z,97.70
2022-11-19T16:06:50.949Z,99.90
2022-11-19T16:09:23.658Z,99.90
2022-11-19T16:12:10.728Z,99.90
2022-11-19T16:14:56.225Z,99.90
2022-11-19T16:17:41.805Z,99.90
2022-11-19T16:20:10.292Z,99.90
2022-11-19T16:22:45.539Z,99.10
2022-11-19T16:25:27.533Z,99.50
2022-11-19T16:27:57.291Z,99.90
2022-11-19T16:30:29.887Z,99.90
2022-11-19T16:32:58.999Z,99.90
2022-11-19T16:35:31.624Z,99.90
2022-11-19T16:38:00.427Z,99.90
2022-11-19T16:40:49.043Z,99.90
2022-11-19T16:43:16.781Z,99.60
2022-11-19T16:45:46.502Z,97.30
2022-11-19T16:48:41.421Z,97.80
2022-11-19T16:51:34.845Z,99.90
2022-11-19T16:54:03.709Z,99.60
2022-11-19T16:56:38.523Z,99.10
2022-11-19T16:59:06.371Z,96.30
2022-11-19T17:01:33.934Z,94.90
2022-11-19T17:04:06.980Z,96.40
2022-11-19T17:06:36.958Z,95.40
2022-11-19T17:09:06.042Z,95.40
2022-11-19T17:11:59.213Z,97.20
2022-11-19T17:14:35.333Z,98.00
2022-11-19T17:17:03.548Z,99.70
2022-11-19T17:19:34.793Z,99.90
2022-11-19T17:22:06.353Z,99.90
2022-11-19T17:24:44.153Z,99.90
2022-11-19T17:27:36.163Z,99.90
2022-11-19T17:30:02.997Z,99.90
2022-11-19T17:32:34.776Z,99.90
2022-11-19T17:35:01.748Z,99.90
2022-11-19T17:37:28.781Z,99.90
2022-11-19T17:39:55.666Z,99.90
2022-11-19T17:42:42.639Z,99.90
2022-11-19T17:45:11.170Z,99.90
2022-11-19T17:47:38.122Z,99.90
2022-11-19T17:50:05.464Z,99.90
2022-11-19T17:52:33.272Z,99.90
2022-11-19T17:55:17.760Z,99.90
2022-11-19T17:57:44.693Z,99.90
2022-11-19T18:00:12.294Z,99.90
2022-11-19T18:02:39.413Z,99.90
2022-11-19T18:05:34.603Z,99.90
2022-11-19T18:08:04.604Z,99.90
2022-11-19T18:12:59.520Z,99.90
2022-11-19T18:15:26.840Z,99.90
2022-11-19T18:17:57.312Z,99.90
2022-11-19T18:20:25.349Z,99.90
2022-11-19T18:22:52.664Z,99.90
2022-11-19T18:25:22.050Z,99.90
2022-11-19T18:27:49.205Z,99.90
2022-11-19T18:32:44.427Z,99.90
2022-11-19T18:35:20.040Z,99.90
2022-11-19T18:37:47.239Z,99.90
2022-11-19T18:40:15.468Z,99.90
2022-11-19T18:43:01.049Z,99.90
2022-11-19T18:45:28.311Z,99.90
2022-11-19T18:47:55.489Z,99.90
2022-11-19T18:50:29.369Z,99.90
2022-11-19T18:52:57.078Z,99.90
2022-11-19T18:55:24.545Z,99.90
2022-11-19T18:57:51.648Z,99.90
2022-11-19T19:00:18.874Z,99.90
2022-11-19T19:02:46.121Z,99.90
2022-11-19T19:05:13.017Z,99.90
2022-11-19T19:07:40.284Z,99.90
2022-11-19T19:10:07.671Z,99.90
2022-11-19T19:12:34.860Z,99.90
2022-11-19T19:15:02.195Z,99.90
2022-11-19T19:17:31.241Z,99.90
2022-11-19T19:19:58.271Z,99.90
2022-11-19T19:22:25.185Z,99.90
2022-11-19T19:24:57.925Z,99.90
2022-11-19T19:27:25.709Z,99.90
2022-11-19T19:29:52.542Z,99.90
2022-11-19T19:32:19.302Z,99.90
2022-11-19T19:34:46.122Z,99.90
2022-11-19T19:37:15.032Z,99.90
2022-11-19T19:39:42.068Z,99.90
2022-11-19T19:42:08.945Z,99.90
2022-11-19T19:44:36.997Z,99.90
2022-11-19T19:47:05.250Z,99.90
2022-11-19T19:49:37.369Z,99.90
2022-11-19T19:52:05.737Z,99.90
2022-11-19T19:54:32.779Z,99.90
2022-11-19T19:56:59.632Z,99.90
2022-11-19T19:59:26.583Z,99.90
2022-11-19T20:01:53.757Z,99.90
2022-11-19T20:04:20.749Z,99.90
2022-11-19T20:06:48.148Z,99.90
2022-11-19T20:09:15.364Z,99.90
2022-11-19T20:11:42.301Z,99.90
2022-11-19T20:14:10.128Z,99.90
2022-11-19T20:16:40.302Z,99.90
2022-11-19T20:19:09.202Z,99.90
2022-11-19T20:21:36.547Z,99.90
2022-11-19T20:24:11.459Z,99.90
2022-11-19T20:26:39.723Z,99.90
2022-11-19T20:29:06.903Z,99.90
2022-11-19T20:31:35.341Z,99.90
2022-11-19T20:34:04.647Z,99.90
2022-11-19T20:36:34.082Z,99.90
2022-11-19T20:39:02.041Z,99.90
2022-11-19T20:41:47.610Z,99.90
2022-11-19T20:44:23.310Z,99.90
2022-11-19T20:47:02.300Z,99.90
2022-11-19T20:49:32.175Z,99.90
2022-11-19T20:51:59.646Z,99.90
2022-11-19T20:54:27.707Z,99.90
2022-11-19T20:56:56.036Z,99.90
2022-11-19T20:59:24.054Z,99.90
2022-11-19T21:01:51.909Z,99.90
2022-11-19T21:04:20.306Z,99.90
2022-11-19T21:06:49.853Z,99.90
2022-11-19T21:09:17.257Z,99.90
2022-11-19T21:11:44.339Z,99.90
2022-11-19T21:14:11.828Z,99.90
2022-11-19T21:16:39.212Z,99.90
2022-11-19T21:19:06.138Z,99.90
2022-11-19T21:21:33.182Z,99.90
2022-11-19T21:24:00.054Z,99.90
2022-11-19T21:26:28.217Z,99.90
2022-11-19T21:28:57.911Z,99.90
2022-11-19T21:31:44.332Z,99.90
2022-11-19T21:34:13.353Z,99.90
2022-11-19T21:36:41.879Z,99.90
2022-11-19T21:39:09.882Z,99.90
2022-11-19T21:41:37.679Z,99.90
2022-11-19T21:44:06.058Z,99.90
2022-11-19T21:46:34.440Z,99.90
2022-11-19T21:49:02.633Z,99.90
2022-11-19T21:54:00.275Z,99.90
2022-11-19T21:56:28.234Z,99.90
2022-11-19T21:58:56.154Z,99.90
2022-11-19T22:03:51.341Z,99.90
2022-11-19T22:06:19.493Z,99.90
2022-11-19T22:11:32.568Z,99.90
2022-11-19T22:14:07.941Z,99.90
2022-11-19T22:16:42.230Z,99.90
2022-11-19T22:19:13.807Z,99.90
2022-11-19T22:24:12.805Z,99.90
2022-11-19T22:26:40.257Z,99.90
2022-11-19T22:29:07.803Z,99.90
2022-11-19T22:31:35.380Z,99.90
2022-11-19T22:34:03.695Z,99.90
2022-11-19T22:39:00.795Z,99.90
2022-11-19T22:41:31.098Z,99.90
2022-11-19T22:44:00.192Z,99.90
2022-11-19T22:46:32.923Z,99.90
2022-11-19T22:49:03.011Z,99.90
2022-11-19T22:51:30.371Z,99.90
2022-11-19T22:53:57.520Z,99.90
2022-11-19T22:56:27.805Z,99.90
2022-11-19T22:58:55.199Z,99.90
2022-11-19T23:01:25.342Z,99.90
2022-11-19T23:03:53.203Z,99.90
2022-11-19T23:06:20.607Z,99.90
2022-11-19T23:11:16.783Z,99.90
2022-11-19T23:13:45.240Z,99.90
2022-11-19T23:16:14.104Z,99.90
2022-11-19T23:18:45.497Z,99.90
2022-11-19T23:21:16.147Z,99.90
2022-11-19T23:23:43.242Z,99.90
2022-11-19T23:26:13.610Z,99.90
2022-11-19T23:28:40.849Z,99.90
2022-11-19T23:31:15.896Z,99.90
2022-11-19T23:33:43.633Z,99.90
2022-11-19T23:36:13.596Z,99.90
2022-11-19T23:38:41.355Z,99.90
2022-11-19T23:41:11.252Z,99.90
2022-11-19T23:43:39.409Z,99.90
2022-11-19T23:46:16.987Z,99.90
2022-11-19T23:48:46.307Z,99.90
2022-11-19T23:51:15.661Z,99.90
2022-11-19T23:53:43.394Z,99.90
2022-11-19T23:56:12.399Z,99.90
2022-11-19T23:58:40.102Z,99.90
